Hlavní strana
METAR-TAF:

METAR-TAF

Letiště :

Mezinárodní letiště Šanghaj Pchu-tung

Šanghaj-Pudong, Čína

zeměpisná šířka: 31-07N, zeměpisná délka: 121-46E, výška: 4 m

Aktuální stav počasí

Zpráva byla vytvořena před 31 minutami, v 13:00 UTC
Jihovýchodní vítr 17 kt
Teplota 28°C
Vlhkost vzduchu 84%
Tlak 1002 hPa
Viditelnost 10 km a více
Skoro jasno ve výšce 1500 ft

METAR: ZSPD 171300Z 13009MPS 9999 FEW015 28/25 Q1002 NOSIG

Čas: 21:31 (13:31 UTC)

Předpověď počasí

Zpráva byla vytvořena před 4 hodinami a 15 minutami, v 09:16 UTC
Předpověď platná od 17 v 12 UTC do 18 v 12 UTC
Jihovýchodní vítr 17 kt
Viditelnost: 6000 m
Oblačno až skoro zataženo ve výšce 1300 ft

TAF: ZSPD 170916Z 1712/1812 14009MPS 6000 BKN013 TX30/1806Z TN25/1721Z

Stav a předpovědi počasí z více než 4 000 letišť (zprávy METAR a TAF).

Červené a žluté tečky na mapě představují dostupné meteorologické stanice.

Když kurzor umístíte na tečku, zobrazí se název stanice.

Pak kliknutím zobrazíte stav a předpověď počasí.

Chcete-li změnit mapu, kliknutím na zelené tlačítko se znaménkem +mapu přiblížíte, kliknutím na zelené tlačítko se znaménkem – mapu oddálíte a kliknutím na zelené šipky přejdete na sousední mapy.


METAR-TAF: